Time;durP1;ratioP1;P1;durP2;ratioP2;P2;SDS_P1;SDS_P2;PMS_P1;PMS_P2;Temp;Humidity;BMP_temperature;BMP_pressure;BME280_temperature;BME280_humidity;BME280_pressure;Samples;Min_cycle;Max_cycle;Signal;HPM_P1;HPM_P2
2022/05/13 00:01:44;;;;;;;0.82;0.32;;;11.60;99.90;;;;;;5043906;28;20067;-71
2022/05/13 00:04:10;;;;;;;0.60;0.60;;;11.50;99.90;;;;;;5077084;28;20044;-71
2022/05/13 00:06:36;;;;;;;0.95;0.65;;;11.50;99.90;;;;;;5076883;28;20065;-71
2022/05/13 00:09:02;;;;;;;2.28;0.65;;;11.60;99.90;;;;;;5076846;28;20088;-71
2022/05/13 00:11:28;;;;;;;0.45;0.43;;;11.60;99.90;;;;;;5077129;28;20036;-71
2022/05/13 00:13:54;;;;;;;1.60;0.95;;;11.60;99.90;;;;;;5060271;28;20036;-71
2022/05/13 00:16:19;;;;;;;1.02;0.60;;;11.60;99.90;;;;;;5060030;28;20040;-72
2022/05/13 00:18:45;;;;;;;0.68;0.68;;;11.70;99.90;;;;;;5060095;28;20070;-72
2022/05/13 00:21:11;;;;;;;2.25;1.02;;;11.60;99.90;;;;;;5060379;28;20051;-72
2022/05/13 00:23:37;;;;;;;1.63;0.80;;;11.60;99.90;;;;;;5059914;28;20055;-72
2022/05/13 00:26:03;;;;;;;2.55;0.60;;;11.70;99.90;;;;;;5076610;28;20078;-72
2022/05/13 00:28:29;;;;;;;0.77;0.75;;;11.60;99.90;;;;;;5076876;28;20124;-72
2022/05/13 00:30:55;;;;;;;1.20;0.60;;;11.70;99.90;;;;;;5059859;28;20072;-71
2022/05/13 00:33:21;;;;;;;1.65;0.77;;;11.70;99.90;;;;;;5076801;28;20025;-71
2022/05/13 00:35:48;;;;;;;0.98;0.80;;;12.60;99.90;;;;;;5076821;28;20117;-71
2022/05/13 00:38:14;;;;;;;1.33;1.15;;;11.60;99.90;;;;;;5076751;28;20401;-72
2022/05/13 00:40:41;;;;;;;1.35;0.70;;;11.70;99.90;;;;;;5076363;28;20094;-71
2022/05/13 00:43:09;;;;;;;1.00;0.63;;;11.70;99.90;;;;;;5076284;28;20044;-71
2022/05/13 00:45:35;;;;;;;1.48;0.73;;;12.70;99.90;;;;;;5059566;28;20176;-71
2022/05/13 00:48:02;;;;;;;1.20;1.02;;;11.70;99.90;;;;;;5076181;28;20051;-71
2022/05/13 00:50:34;;;;;;;1.38;0.77;;;11.70;99.90;;;;;;5076241;28;20121;-71
2022/05/13 00:53:02;;;;;;;3.70;0.73;;;11.70;99.90;;;;;;5059520;28;20040;-71
2022/05/13 00:55:35;;;;;;;1.48;0.80;;;11.80;99.90;;;;;;5059594;28;20169;-72
2022/05/13 00:58:04;;;;;;;1.27;0.90;;;11.80;99.90;;;;;;5076065;28;20051;-72
2022/05/13 01:00:29;;;;;;;2.03;0.95;;;11.70;99.90;;;;;;5076317;28;20360;-72
2022/05/13 01:02:56;;;;;;;2.03;0.85;;;12.00;99.90;;;;;;5076203;28;20073;-72
2022/05/13 01:05:23;;;;;;;0.80;0.57;;;11.80;99.90;;;;;;5059139;28;20043;-72
2022/05/13 01:07:50;;;;;;;1.08;0.50;;;11.80;99.90;;;;;;5075958;28;20070;-72
2022/05/13 01:10:22;;;;;;;3.97;1.23;;;11.80;99.90;;;;;;5059392;28;20043;-72
2022/05/13 01:12:53;;;;;;;2.20;0.80;;;11.80;99.90;;;;;;5059096;28;20044;-72
2022/05/13 01:15:24;;;;;;;1.73;0.73;;;11.80;99.90;;;;;;5075643;28;20040;-72
2022/05/13 01:18:07;;;;;;;1.10;0.90;;;11.80;99.90;;;;;;5059035;28;20073;-72
2022/05/13 01:21:03;;;;;;;0.50;0.43;;;11.70;99.90;;;;;;5075804;28;20089;-72
2022/05/13 01:23:41;;;;;;;3.13;0.60;;;11.80;99.90;;;;;;5059486;28;20044;-72
2022/05/13 01:26:13;;;;;;;2.05;0.70;;;11.80;99.90;;;;;;5075636;28;20566;-72
2022/05/13 01:28:49;;;;;;;1.92;1.10;;;11.80;99.90;;;;;;5075155;28;20492;-72
2022/05/13 01:31:32;;;;;;;7.13;0.68;;;11.80;99.90;;;;;;5058700;28;20032;-72
2022/05/13 01:34:01;;;;;;;1.10;1.00;;;11.80;99.90;;;;;;5075573;28;20506;-72
2022/05/13 01:36:28;;;;;;;0.73;0.60;;;11.80;99.90;;;;;;5059114;28;20075;-72
2022/05/13 01:38:55;;;;;;;0.95;0.47;;;11.80;99.90;;;;;;5041991;28;20180;-72
2022/05/13 01:41:21;;;;;;;0.70;0.55;;;11.80;99.90;;;;;;5058520;28;20077;-72
2022/05/13 01:43:48;;;;;;;1.33;0.98;;;11.80;99.90;;;;;;5075155;28;20051;-72
2022/05/13 01:46:14;;;;;;;0.85;0.82;;;11.80;99.90;;;;;;5075313;28;20511;-72
2022/05/13 01:48:41;;;;;;;0.73;0.52;;;12.10;99.90;;;;;;5075117;28;20089;-72
2022/05/13 01:51:07;;;;;;;0.73;0.70;;;11.80;99.90;;;;;;5058456;28;20066;-72
2022/05/13 01:53:33;;;;;;;3.55;0.70;;;11.80;99.90;;;;;;5075044;28;20044;-72
2022/05/13 01:55:58;;;;;;;0.57;0.57;;;11.80;99.90;;;;;;5075059;28;20078;-72
2022/05/13 01:58:25;;;;;;;0.60;0.60;;;11.80;99.90;;;;;;5075302;28;20087;-72
2022/05/13 02:00:54;;;;;;;3.15;0.82;;;11.80;99.90;;;;;;5075071;28;20043;-72
2022/05/13 02:06:05;;;;;;;2.13;0.70;;;11.80;99.90;;;;;;5074835;28;20131;-72
2022/05/13 02:08:32;;;;;;;1.40;0.73;;;11.80;99.90;;;;;;5057941;28;20087;-72
2022/05/13 02:10:58;;;;;;;0.80;0.60;;;11.80;99.90;;;;;;5092003;28;20526;-72
2022/05/13 02:13:24;;;;;;;0.85;0.68;;;11.80;99.90;;;;;;5074818;28;20071;-72
2022/05/13 02:15:52;;;;;;;1.02;0.70;;;11.80;99.90;;;;;;5041573;28;20507;-72
2022/05/13 02:18:19;;;;;;;0.90;0.65;;;11.80;99.90;;;;;;5058585;28;20489;-72
2022/05/13 02:20:45;;;;;;;0.55;0.52;;;11.80;99.90;;;;;;5058091;28;20044;-72
2022/05/13 02:23:11;;;;;;;1.13;0.75;;;11.70;99.90;;;;;;5074763;28;20039;-72
2022/05/13 02:25:37;;;;;;;3.58;0.75;;;11.90;99.90;;;;;;5057903;28;20042;-72
2022/05/13 02:28:04;;;;;;;1.27;0.77;;;11.70;99.90;;;;;;5058266;28;20433;-72
2022/05/13 02:30:30;;;;;;;3.90;1.00;;;11.70;99.90;;;;;;5058141;28;20052;-72
2022/05/13 02:32:57;;;;;;;6.82;0.93;;;11.70;99.90;;;;;;5074930;28;20043;-72
2022/05/13 02:35:23;;;;;;;1.65;0.98;;;11.70;99.90;;;;;;5057995;28;20046;-72
2022/05/13 02:37:49;;;;;;;2.58;0.77;;;11.80;99.90;;;;;;5057861;28;20044;-72
2022/05/13 02:40:17;;;;;;;1.38;1.27;;;11.60;99.90;;;;;;5075757;28;20105;-72
2022/05/13 02:42:43;;;;;;;0.88;0.73;;;11.70;99.90;;;;;;5078584;28;20160;-72
2022/05/13 02:45:09;;;;;;;3.20;1.00;;;11.70;99.90;;;;;;5078822;28;20075;-72
2022/05/13 02:47:36;;;;;;;3.03;1.30;;;11.70;99.90;;;;;;5061740;28;20047;-72
2022/05/13 02:50:18;;;;;;;0.93;0.63;;;11.60;99.90;;;;;;5078441;28;20041;-72
2022/05/13 02:52:50;;;;;;;4.07;0.95;;;11.60;99.90;;;;;;5061788;28;20082;-72
2022/05/13 02:55:16;;;;;;;1.50;0.88;;;11.60;99.90;;;;;;5045227;28;20126;-72
2022/05/13 02:57:43;;;;;;;3.55;1.00;;;11.60;99.90;;;;;;5078327;28;20048;-72
2022/05/13 03:00:09;;;;;;;2.08;1.75;;;11.60;99.90;;;;;;5078332;28;20123;-72
2022/05/13 03:02:35;;;;;;;1.08;0.80;;;11.50;99.90;;;;;;5078378;28;20055;-72
2022/05/13 03:05:01;;;;;;;1.67;0.70;;;11.60;99.90;;;;;;5061468;28;20044;-72
2022/05/13 03:07:27;;;;;;;1.48;1.30;;;11.50;99.90;;;;;;5078004;28;20131;-73
2022/05/13 03:09:52;;;;;;;0.68;0.60;;;11.50;99.90;;;;;;5061283;28;20052;-72
2022/05/13 03:12:18;;;;;;;1.17;0.70;;;11.50;99.90;;;;;;5061415;28;20380;-72
2022/05/13 03:14:44;;;;;;;4.18;0.93;;;11.50;99.90;;;;;;5061389;28;20138;-72
2022/05/13 03:17:10;;;;;;;3.13;1.48;;;11.50;99.90;;;;;;5078285;28;20106;-72
2022/05/13 03:19:36;;;;;;;2.13;0.70;;;11.50;99.90;;;;;;5061220;28;20164;-72
2022/05/13 03:22:03;;;;;;;2.38;1.25;;;11.50;99.90;;;;;;5077825;28;20048;-72
2022/05/13 03:24:29;;;;;;;4.85;0.88;;;11.50;99.90;;;;;;5061097;28;20063;-72
2022/05/13 03:26:55;;;;;;;1.77;0.88;;;11.50;99.90;;;;;;5061133;28;20036;-72
2022/05/13 03:29:20;;;;;;;1.50;0.85;;;11.50;99.90;;;;;;5061418;28;20553;-72
2022/05/13 03:31:47;;;;;;;4.68;0.82;;;11.50;99.90;;;;;;5044468;28;20076;-72
2022/05/13 03:34:13;;;;;;;1.73;0.75;;;11.40;99.90;;;;;;5077604;28;20040;-72
2022/05/13 03:36:39;;;;;;;1.17;0.80;;;11.40;99.90;;;;;;5077577;28;20047;-72
2022/05/13 03:39:07;;;;;;;6.35;0.95;;;11.40;99.90;;;;;;5077504;28;20522;-72
2022/05/13 03:41:34;;;;;;;1.88;0.82;;;11.30;99.90;;;;;;5061067;28;20051;-72
2022/05/13 03:43:59;;;;;;;0.82;0.60;;;11.40;99.90;;;;;;5077499;28;20044;-72
2022/05/13 03:46:25;;;;;;;2.40;1.35;;;11.40;99.90;;;;;;5060593;28;20131;-74
2022/05/13 03:48:51;;;;;;;1.10;0.80;;;11.40;99.90;;;;;;5077423;28;20039;-72
2022/05/13 03:51:17;;;;;;;1.95;0.75;;;11.40;99.90;;;;;;5043929;28;20075;-72
2022/05/13 03:53:42;;;;;;;2.15;0.82;;;11.40;99.90;;;;;;5077290;28;20039;-72
2022/05/13 03:56:08;;;;;;;3.13;1.00;;;11.40;99.90;;;;;;5044004;28;20036;-72
2022/05/13 03:58:34;;;;;;;3.22;0.95;;;11.40;99.90;;;;;;5077204;28;20044;-72
2022/05/13 04:01:00;;;;;;;2.10;0.93;;;11.40;99.90;;;;;;5077467;28;20044;-72
2022/05/13 04:03:27;;;;;;;3.15;1.23;;;11.40;99.90;;;;;;5077041;28;20114;-72
2022/05/13 04:11:21;;;;;;;1.33;0.88;;;11.40;99.90;;;;;;5062792;28;20044;-72
2022/05/13 04:16:31;;;;;;;4.22;1.40;;;11.50;99.90;;;;;;5062709;28;20044;-72
2022/05/13 04:18:58;;;;;;;3.78;0.98;;;11.50;99.90;;;;;;5043878;28;20399;-72
2022/05/13 04:21:30;;;;;;;1.40;1.10;;;11.50;99.90;;;;;;5060225;28;20044;-72
2022/05/13 04:23:59;;;;;;;4.82;1.10;;;11.50;99.90;;;;;;5060066;28;20039;-72
2022/05/13 04:26:26;;;;;;;2.45;0.90;;;11.50;99.90;;;;;;5060145;28;20036;-72
2022/05/13 04:28:53;;;;;;;1.95;0.82;;;12.30;99.90;;;;;;5076657;28;20040;-72
2022/05/13 04:31:27;;;;;;;2.33;1.08;;;11.50;99.90;;;;;;5076626;28;20040;-72
2022/05/13 04:33:53;;;;;;;7.82;1.80;;;11.50;99.90;;;;;;5059893;28;20044;-72
2022/05/13 04:36:20;;;;;;;6.78;1.10;;;11.50;99.90;;;;;;5076561;28;20057;-72
2022/05/13 04:38:47;;;;;;;1.05;0.80;;;11.50;99.90;;;;;;5076669;28;20044;-72
2022/05/13 04:43:59;;;;;;;6.32;0.90;;;11.50;99.90;;;;;;5076307;28;20044;-72
2022/05/13 04:46:25;;;;;;;0.98;0.68;;;11.50;99.90;;;;;;5076306;28;20497;-72
2022/05/13 04:48:53;;;;;;;4.28;1.50;;;11.50;99.90;;;;;;5076543;28;20040;-72
2022/05/13 04:51:19;;;;;;;5.47;0.88;;;11.50;99.90;;;;;;5059842;28;20142;-72
2022/05/13 04:53:47;;;;;;;3.13;1.67;;;11.50;99.90;;;;;;5076158;28;20075;-71
2022/05/13 04:56:13;;;;;;;2.40;0.70;;;11.50;99.90;;;;;;5059782;28;20547;-71
2022/05/13 04:58:39;;;;;;;3.63;1.23;;;11.50;99.90;;;;;;5076023;28;20079;-71
2022/05/13 05:01:06;;;;;;;2.95;0.95;;;11.60;99.90;;;;;;5075958;28;20127;-71
2022/05/13 05:03:35;;;;;;;0.85;0.75;;;11.60;99.90;;;;;;5075034;28;20071;-71
2022/05/13 05:06:02;;;;;;;1.02;0.85;;;11.60;99.90;;;;;;5076058;28;20491;-71
2022/05/13 05:08:29;;;;;;;3.22;0.98;;;11.60;99.90;;;;;;5059216;28;20063;-71
2022/05/13 05:10:56;;;;;;;6.80;2.05;;;11.60;99.90;;;;;;5076091;28;20479;-71
2022/05/13 05:13:27;;;;;;;2.88;0.85;;;11.60;99.90;;;;;;5076041;28;20075;-72
2022/05/13 05:15:54;;;;;;;6.85;1.55;;;11.70;99.90;;;;;;5075619;28;20044;-72
2022/05/13 05:18:20;;;;;;;2.45;1.13;;;11.60;99.90;;;;;;5059558;28;20040;-72
2022/05/13 05:20:48;;;;;;;1.83;0.98;;;11.70;99.90;;;;;;5076385;28;20081;-71
2022/05/13 05:23:22;;;;;;;3.15;1.33;;;11.70;99.90;;;;;;5059473;28;20503;-73
2022/05/13 05:25:48;;;;;;;1.27;0.80;;;11.80;99.90;;;;;;5075458;28;20154;-72
2022/05/13 05:28:14;;;;;;;6.13;1.30;;;11.90;99.90;;;;;;5075442;28;20664;-73
2022/05/13 05:30:41;;;;;;;1.17;0.85;;;11.90;99.90;;;;;;5075370;28;20067;-73
2022/05/13 05:33:08;;;;;;;8.27;1.00;;;12.00;99.90;;;;;;5058994;28;20516;-72
2022/05/13 05:35:34;;;;;;;6.82;1.15;;;12.00;99.90;;;;;;5058770;28;20067;-72
2022/05/13 05:38:00;;;;;;;4.22;0.98;;;12.10;99.90;;;;;;5075228;28;20085;-72
2022/05/13 05:40:26;;;;;;;2.70;0.82;;;12.30;99.90;;;;;;5075478;28;20036;-73
2022/05/13 05:42:52;;;;;;;1.30;0.82;;;12.20;99.90;;;;;;5058660;28;20035;-73
2022/05/13 05:45:23;;;;;;;3.08;0.77;;;12.30;99.90;;;;;;5075162;28;20085;-73
2022/05/13 05:47:49;;;;;;;2.55;0.85;;;12.40;99.90;;;;;;5075094;28;20127;-72
2022/05/13 05:50:18;;;;;;;3.78;0.88;;;12.40;99.90;;;;;;5058463;28;20043;-72
2022/05/13 05:52:45;;;;;;;3.83;1.10;;;12.40;99.90;;;;;;5074882;28;20040;-71
2022/05/13 05:58:00;;;;;;;3.42;0.95;;;12.50;99.90;;;;;;5075020;28;20058;-73
2022/05/13 06:00:28;;;;;;;7.47;1.33;;;12.60;99.90;;;;;;5058370;28;20127;-74
2022/05/13 06:02:54;;;;;;;3.22;0.98;;;12.80;99.90;;;;;;5075308;28;20507;-73
2022/05/13 06:05:21;;;;;;;2.22;1.27;;;12.90;99.90;;;;;;5058314;28;20127;-74
2022/05/13 06:07:46;;;;;;;2.80;1.10;;;13.00;99.90;;;;;;5058117;28;20039;-72
2022/05/13 06:10:14;;;;;;;2.67;1.48;;;13.10;99.90;;;;;;5091906;28;20098;-72
2022/05/13 06:12:41;;;;;;;5.05;1.20;;;13.40;99.90;;;;;;5091630;28;20040;-74
2022/05/13 06:15:08;;;;;;;3.40;0.93;;;13.30;99.90;;;;;;5058079;28;20283;-73
2022/05/13 06:17:34;;;;;;;7.78;1.00;;;13.40;99.90;;;;;;5074982;28;20122;-73
2022/05/13 06:20:04;;;;;;;2.80;1.20;;;13.50;99.90;;;;;;5058145;28;20048;-73
2022/05/13 06:22:29;;;;;;;3.13;1.10;;;13.50;99.90;;;;;;5058165;28;20044;-72
2022/05/13 06:24:55;;;;;;;1.90;1.08;;;13.70;99.90;;;;;;5058072;28;20138;-72
2022/05/13 06:27:21;;;;;;;8.23;1.33;;;13.70;99.90;;;;;;5074720;28;20132;-72
2022/05/13 06:29:47;;;;;;;1.40;0.80;;;13.70;99.90;;;;;;5041801;28;20131;-72
2022/05/13 06:32:13;;;;;;;3.78;0.98;;;13.70;99.90;;;;;;5074699;28;20067;-72
2022/05/13 06:34:39;;;;;;;6.07;1.20;;;13.80;99.90;;;;;;5041581;28;20505;-72
2022/05/13 06:37:05;;;;;;;1.48;1.10;;;13.80;99.90;;;;;;5074800;28;20071;-72
2022/05/13 06:39:30;;;;;;;3.00;1.25;;;13.80;99.90;;;;;;5057828;28;20040;-72
2022/05/13 06:41:56;;;;;;;1.25;0.68;;;14.00;99.90;;;;;;5057815;28;20075;-72
2022/05/13 06:44:21;;;;;;;3.72;0.90;;;13.90;99.90;;;;;;5057787;28;20040;-72
2022/05/13 06:46:47;;;;;;;1.45;1.00;;;14.00;99.90;;;;;;5041126;28;20040;-72
2022/05/13 06:49:14;;;;;;;1.92;0.90;;;14.00;99.90;;;;;;5057650;28;20036;-72
2022/05/13 06:51:41;;;;;;;3.22;1.23;;;14.60;99.90;;;;;;5057817;28;20076;-72
2022/05/13 06:54:09;;;;;;;2.85;0.88;;;14.20;99.90;;;;;;5074345;28;20071;-72
2022/05/13 06:56:37;;;;;;;5.15;0.82;;;13.90;99.90;;;;;;5074717;28;20075;-72
2022/05/13 06:59:04;;;;;;;3.08;0.77;;;14.20;99.90;;;;;;5074661;28;20479;-72
2022/05/13 07:01:30;;;;;;;2.08;0.93;;;14.50;99.90;;;;;;5057901;28;20043;-72
2022/05/13 07:03:56;;;;;;;2.22;1.05;;;14.60;99.90;;;;;;5041169;28;20449;-72
2022/05/13 07:06:22;;;;;;;3.40;1.42;;;14.60;99.90;;;;;;5074274;28;20036;-72
2022/05/13 07:08:52;;;;;;;2.08;0.65;;;14.50;99.90;;;;;;5074096;28;20052;-72
2022/05/13 07:11:18;;;;;;;1.38;1.00;;;14.50;99.90;;;;;;5057714;28;20388;-72
2022/05/13 07:13:45;;;;;;;3.25;1.02;;;14.40;99.90;;;;;;5057915;28;20065;-71
2022/05/13 07:16:11;;;;;;;3.88;0.70;;;14.40;99.90;;;;;;5057613;28;20043;-72
2022/05/13 07:18:38;;;;;;;0.68;0.55;;;14.30;99.90;;;;;;5074283;28;20091;-72
2022/05/13 07:21:05;;;;;;;4.03;0.80;;;14.20;99.90;;;;;;5074259;28;20044;-72
2022/05/13 07:23:31;;;;;;;4.97;1.20;;;14.20;99.90;;;;;;5074199;28;20046;-72
2022/05/13 07:25:57;;;;;;;1.27;0.55;;;14.60;99.90;;;;;;5058170;28;20100;-72
2022/05/13 07:28:23;;;;;;;0.98;0.50;;;14.60;99.90;;;;;;5061455;28;20040;-72
2022/05/13 07:30:49;;;;;;;1.80;0.73;;;14.20;99.90;;;;;;5078072;28;20076;-72
2022/05/13 07:33:15;;;;;;;3.90;0.80;;;14.40;99.90;;;;;;5061391;28;20048;-72
2022/05/13 07:35:41;;;;;;;0.50;0.50;;;14.60;99.90;;;;;;5044405;28;20032;-72
2022/05/13 07:38:08;;;;;;;2.08;0.47;;;14.60;99.90;;;;;;5077971;28;20522;-72
2022/05/13 07:43:18;;;;;;;1.40;0.50;;;15.10;99.90;;;;;;5077469;28;20040;-72
2022/05/13 07:45:44;;;;;;;3.42;0.60;;;15.00;99.90;;;;;;5060738;28;20039;-72
2022/05/13 07:48:10;;;;;;;5.00;1.25;;;15.00;99.90;;;;;;5077416;28;20040;-72
2022/05/13 07:50:36;;;;;;;2.55;0.43;;;15.30;99.90;;;;;;5061142;28;20047;-72
2022/05/13 07:53:02;;;;;;;3.92;0.88;;;15.50;99.90;;;;;;5060890;28;20036;-73
2022/05/13 07:55:28;;;;;;;0.47;0.40;;;15.70;99.90;;;;;;5060618;28;20067;-72
2022/05/13 07:57:54;;;;;;;2.17;0.85;;;;;;;;;;5044017;28;20040;-72
2022/05/13 08:00:25;;;;;;;0.52;0.43;;;16.00;99.90;;;;;;5077355;28;20050;-72
2022/05/13 08:03:01;;;;;;;3.80;0.63;;;16.10;99.90;;;;;;5060771;28;20501;-72
2022/05/13 08:05:30;;;;;;;1.02;0.77;;;16.20;99.90;;;;;;5077110;28;20160;-72
2022/05/13 08:08:17;;;;;;;4.13;0.85;;;16.00;99.90;;;;;;5077081;28;20388;-72
2022/05/13 08:10:49;;;;;;;3.30;0.60;;;15.60;99.90;;;;;;5060381;28;20097;-71
2022/05/13 08:13:15;;;;;;;0.70;0.47;;;15.70;99.90;;;;;;5077041;28;20042;-72
2022/05/13 08:15:41;;;;;;;1.67;0.60;;;15.90;99.90;;;;;;5076987;28;20118;-72
2022/05/13 08:18:07;;;;;;;2.70;0.68;;;15.90;99.90;;;;;;5060231;28;20039;-72
2022/05/13 08:20:33;;;;;;;2.00;0.60;;;15.80;99.90;;;;;;5060507;28;20032;-72
2022/05/13 08:22:59;;;;;;;1.17;0.50;;;15.70;99.90;;;;;;5060390;28;20028;-72
2022/05/13 08:25:25;;;;;;;3.40;0.60;;;15.70;99.90;;;;;;5076755;28;20028;-72
2022/05/13 08:27:51;;;;;;;0.35;0.30;;;15.70;99.90;;;;;;5076668;28;20047;-72
2022/05/13 08:30:18;;;;;;;1.77;0.43;;;15.60;99.90;;;;;;5093839;28;20075;-72
2022/05/13 08:32:44;;;;;;;1.02;0.60;;;15.50;99.90;;;;;;5060024;28;20062;-72
2022/05/13 08:35:11;;;;;;;1.52;0.77;;;15.40;99.90;;;;;;5059972;28;20032;-72
2022/05/13 08:37:50;;;;;;;4.53;0.63;;;15.30;99.90;;;;;;5059905;28;20048;-72
2022/05/13 08:40:54;;;;;;;2.63;0.55;;;15.40;99.90;;;;;;5076468;28;20089;-72
2022/05/13 08:43:23;;;;;;;4.22;0.50;;;15.40;99.90;;;;;;5046414;28;20056;-72
2022/05/13 08:46:13;;;;;;;0.30;0.30;;;15.30;99.90;;;;;;5076290;28;20043;-72
2022/05/13 08:48:57;;;;;;;1.20;0.55;;;15.30;99.90;;;;;;5076528;28;20032;-72
2022/05/13 08:51:56;;;;;;;1.45;0.30;;;15.30;99.90;;;;;;5076490;28;20480;-72
2022/05/13 08:54:30;;;;;;;0.60;0.60;;;15.40;99.90;;;;;;5076133;28;20036;-72
2022/05/13 08:57:00;;;;;;;1.58;0.47;;;15.40;99.90;;;;;;5076192;28;20415;-72
2022/05/13 08:59:52;;;;;;;0.50;0.47;;;15.50;99.90;;;;;;5076042;28;20044;-72
2022/05/13 09:02:22;;;;;;;1.23;0.40;;;15.50;99.90;;;;;;5059722;28;20563;-72
2022/05/13 09:04:59;;;;;;;3.03;0.60;;;15.60;99.90;;;;;;5059346;28;20036;-72
2022/05/13 09:07:25;;;;;;;3.03;0.40;;;15.80;99.90;;;;;;5059192;28;20044;-72
2022/05/13 09:09:55;;;;;;;1.90;0.70;;;15.80;99.90;;;;;;5059073;28;20055;-72
2022/05/13 09:12:45;;;;;;;0.77;0.47;;;15.80;99.90;;;;;;5075816;28;20082;-72
2022/05/13 09:15:40;;;;;;;0.45;0.45;;;15.80;99.90;;;;;;5075740;28;20028;-74
2022/05/13 09:18:23;;;;;;;0.40;0.40;;;15.60;99.90;;;;;;5075986;28;20562;-73
2022/05/13 09:20:54;;;;;;;0.57;0.40;;;15.60;99.90;;;;;;5075638;28;20044;-73
2022/05/13 09:23:21;;;;;;;4.05;0.45;;;15.90;99.90;;;;;;5075893;28;20039;-73
2022/05/13 09:25:49;;;;;;;1.08;0.60;;;15.80;99.90;;;;;;5058894;28;20465;-74
2022/05/13 09:28:16;;;;;;;4.13;0.52;;;15.80;99.90;;;;;;5058819;28;20036;-73
2022/05/13 09:30:55;;;;;;;1.20;0.52;;;15.80;99.90;;;;;;5075438;28;20086;-72
2022/05/13 09:33:33;;;;;;;5.00;0.52;;;16.00;99.90;;;;;;5075681;28;20498;-73
2022/05/13 09:36:29;;;;;;;0.40;0.40;;;16.50;99.90;;;;;;5093601;28;20112;-72
2022/05/13 09:38:59;;;;;;;0.43;0.30;;;16.30;99.90;;;;;;5058491;28;20495;-72
2022/05/13 09:41:35;;;;;;;0.85;0.52;;;16.50;99.90;;;;;;5075340;28;20040;-74
2022/05/13 09:44:09;;;;;;;1.73;0.70;;;16.60;99.90;;;;;;5075314;28;20117;-72
2022/05/13 09:46:47;;;;;;;0.50;0.50;;;16.50;99.90;;;;;;5075341;28;20506;-72
2022/05/13 09:49:36;;;;;;;1.15;0.52;;;16.50;99.90;;;;;;5058337;28;20051;-73
2022/05/13 09:52:11;;;;;;;0.30;0.30;;;16.30;99.90;;;;;;5058524;28;20040;-72
2022/05/13 09:54:42;;;;;;;0.45;0.43;;;16.10;99.90;;;;;;5058408;28;20047;-72
2022/05/13 09:57:20;;;;;;;0.47;0.30;;;16.00;99.90;;;;;;5075103;28;20040;-72
2022/05/13 09:59:55;;;;;;;0.60;0.40;;;15.80;99.90;;;;;;5075069;28;20044;-73
2022/05/13 10:02:26;;;;;;;0.40;0.40;;;15.70;99.90;;;;;;5058305;28;20044;-73
2022/05/13 10:04:54;;;;;;;1.00;0.80;;;15.80;99.90;;;;;;5074960;28;20040;-72
2022/05/13 10:07:23;;;;;;;1.20;0.38;;;15.80;99.90;;;;;;5075305;28;20044;-72
2022/05/13 10:15:44;;;;;;;0.30;0.30;;;15.70;99.90;;;;;;5074748;28;20067;-73
2022/05/13 10:18:37;;;;;;;1.27;0.60;;;15.70;99.90;;;;;;5075147;28;20534;-72
2022/05/13 10:21:14;;;;;;;0.57;0.30;;;15.70;99.90;;;;;;5071990;28;20055;-72
2022/05/13 10:23:43;;;;;;;0.98;0.70;;;16.00;99.90;;;;;;5074744;28;20108;-72
2022/05/13 10:26:17;;;;;;;4.38;0.73;;;16.00;99.90;;;;;;5074665;28;20075;-73
2022/05/13 10:29:09;;;;;;;2.10;0.40;;;16.00;99.90;;;;;;5074655;28;20036;-72
2022/05/13 10:31:40;;;;;;;0.85;0.35;;;16.00;99.90;;;;;;5058189;28;20480;-72
2022/05/13 10:34:24;;;;;;;0.50;0.50;;;16.10;99.90;;;;;;5074701;28;20036;-73
2022/05/13 10:37:15;;;;;;;0.50;0.50;;;16.20;99.90;;;;;;5074975;28;20372;-70
2022/05/13 10:39:46;;;;;;;2.17;1.40;;;16.20;99.90;;;;;;5074578;28;20051;-72
2022/05/13 10:42:38;;;;;;;4.50;0.60;;;16.20;99.90;;;;;;5074677;28;20101;-72
2022/05/13 10:45:27;;;;;;;0.88;0.50;;;16.20;99.90;;;;;;5075033;28;20153;-72
2022/05/13 10:48:13;;;;;;;0.55;0.47;;;16.20;99.90;;;;;;5073726;28;20048;-72
2022/05/13 10:50:56;;;;;;;0.30;0.30;;;16.30;99.90;;;;;;5074449;28;20206;-72
2022/05/13 10:53:54;;;;;;;0.52;0.30;;;16.30;99.90;;;;;;5074570;28;20040;-73
2022/05/13 10:56:38;;;;;;;0.88;0.40;;;16.50;99.90;;;;;;5074746;28;20042;-73
2022/05/13 10:59:06;;;;;;;0.93;0.80;;;16.70;99.90;;;;;;5074456;28;20088;-72
2022/05/13 11:01:55;;;;;;;2.50;0.47;;;16.70;99.90;;;;;;5075979;28;20043;-72
2022/05/13 11:04:57;;;;;;;1.65;0.40;;;16.80;99.90;;;;;;5078298;28;20082;-71
2022/05/13 11:07:51;;;;;;;2.80;0.55;;;16.80;99.90;;;;;;5074093;28;20110;-72
2022/05/13 11:10:38;;;;;;;0.77;0.50;;;16.80;99.90;;;;;;5078028;28;20052;-73
2022/05/13 11:13:32;;;;;;;0.70;0.32;;;17.00;99.90;;;;;;5078145;28;20044;-72
2022/05/13 11:16:10;;;;;;;2.80;0.68;;;17.30;99.90;;;;;;5061395;28;20043;-72
2022/05/13 11:19:02;;;;;;;4.00;0.45;;;17.40;99.90;;;;;;5078244;28;20040;-72
2022/05/13 11:21:52;;;;;;;0.60;0.50;;;17.60;99.90;;;;;;5077869;28;20046;-72
2022/05/13 11:27:48;;;;;;;0.82;0.40;;;16.90;99.90;;;;;;5077689;28;20056;-72
2022/05/13 11:30:19;;;;;;;0.50;0.50;;;17.30;99.90;;;;;;5077859;28;20097;-72
2022/05/13 11:33:03;;;;;;;0.98;0.47;;;17.10;99.90;;;;;;5077752;28;20036;-72
2022/05/13 11:35:44;;;;;;;4.93;0.82;;;17.00;99.90;;;;;;5077641;28;20076;-72
2022/05/13 11:38:43;;;;;;;0.80;0.38;;;16.90;99.90;;;;;;5077950;28;20032;-72
2022/05/13 11:41:13;;;;;;;0.88;0.30;;;16.70;99.90;;;;;;5077511;28;20032;-72
2022/05/13 11:44:03;;;;;;;0.30;0.30;;;16.60;99.90;;;;;;5061266;28;20040;-72
2022/05/13 11:47:02;;;;;;;0.80;0.60;;;16.80;99.90;;;;;;5060768;28;20075;-72
2022/05/13 11:49:32;;;;;;;0.45;0.40;;;16.80;99.90;;;;;;5061108;28;20047;-72
2022/05/13 11:52:17;;;;;;;0.40;0.30;;;16.90;99.90;;;;;;5060596;28;20173;-73
2022/05/13 11:54:43;;;;;;;0.50;0.50;;;17.00;99.90;;;;;;5063211;28;20055;-72
2022/05/13 11:57:39;;;;;;;1.00;0.60;;;17.10;99.90;;;;;;5060435;28;20035;-72
2022/05/13 12:00:33;;;;;;;2.72;0.60;;;17.10;99.90;;;;;;5077637;28;20051;-72
2022/05/13 12:03:08;;;;;;;1.13;0.70;;;17.10;99.90;;;;;;5077093;28;20044;-72
2022/05/13 12:05:43;;;;;;;0.40;0.38;;;17.30;99.90;;;;;;5076956;28;20036;-72
2022/05/13 12:08:37;;;;;;;0.80;0.40;;;17.30;99.90;;;;;;5077067;28;20043;-72
2022/05/13 12:11:02;;;;;;;1.45;0.82;;;17.50;99.90;;;;;;5093747;28;20055;-72
2022/05/13 12:13:48;;;;;;;0.65;0.40;;;17.60;99.90;;;;;;5059999;28;20047;-71
2022/05/13 12:16:32;;;;;;;1.40;0.38;;;17.70;99.90;;;;;;5076837;28;20048;-72
2022/05/13 12:19:29;;;;;;;1.13;0.47;;;18.10;99.90;;;;;;5076890;28;20127;-73
2022/05/13 12:22:03;;;;;;;0.50;0.35;;;18.00;99.90;;;;;;5060339;28;20051;-72
2022/05/13 12:24:50;;;;;;;2.22;0.40;;;18.00;99.90;;;;;;5060153;28;20040;-72
2022/05/13 12:27:46;;;;;;;0.40;0.30;;;17.80;99.90;;;;;;5076604;28;20043;-72
2022/05/13 12:30:29;;;;;;;0.52;0.43;;;17.70;99.90;;;;;;5076746;28;20044;-72
2022/05/13 12:32:58;;;;;;;1.35;0.40;;;17.60;99.90;;;;;;5076609;28;20051;-72
2022/05/13 12:38:25;;;;;;;0.40;0.40;;;17.50;99.90;;;;;;5076492;28;20054;-72
2022/05/13 12:41:10;;;;;;;1.10;0.60;;;17.50;99.90;;;;;;5076513;28;20048;-72
2022/05/13 12:44:06;;;;;;;0.77;0.43;;;17.40;99.90;;;;;;5059626;28;20096;-72
2022/05/13 12:46:50;;;;;;;4.47;0.68;;;17.70;99.90;;;;;;5076270;28;20040;-72
2022/05/13 12:49:48;;;;;;;1.65;0.60;;;18.00;99.90;;;;;;5076334;28;20078;-72
2022/05/13 12:52:22;;;;;;;0.50;0.30;;;17.80;99.90;;;;;;5059774;28;20505;-72
2022/05/13 12:54:52;;;;;;;0.30;0.30;;;17.70;99.90;;;;;;5076183;28;20452;-72
2022/05/13 12:57:30;;;;;;;1.75;0.40;;;17.80;99.90;;;;;;5076362;28;20040;-73
2022/05/13 12:59:55;;;;;;;1.52;1.08;;;17.60;99.90;;;;;;5076096;28;20126;-72
2022/05/13 13:02:28;;;;;;;1.58;0.50;;;17.50;99.90;;;;;;5076234;28;20124;-72
2022/05/13 13:05:06;;;;;;;0.73;0.52;;;17.50;99.90;;;;;;5076035;28;20075;-72
2022/05/13 13:07:35;;;;;;;2.42;0.50;;;17.50;99.90;;;;;;5058998;28;20040;-72
2022/05/13 13:10:01;;;;;;;1.17;0.40;;;17.50;99.90;;;;;;5075699;28;20059;-72
2022/05/13 13:12:41;;;;;;;1.90;0.80;;;17.50;99.90;;;;;;5059340;28;20048;-72
2022/05/13 13:15:11;;;;;;;1.65;0.50;;;17.90;99.90;;;;;;5075762;28;20036;-72
2022/05/13 13:17:58;;;;;;;3.40;0.85;;;17.90;99.90;;;;;;5059397;28;20515;-72
2022/05/13 13:20:27;;;;;;;1.08;0.60;;;18.00;99.90;;;;;;5075748;28;20043;-72
2022/05/13 13:23:03;;;;;;;1.13;0.60;;;18.60;99.90;;;;;;5058957;28;20048;-72
2022/05/13 13:25:42;;;;;;;1.40;0.60;;;18.60;99.90;;;;;;5075230;28;20114;-72
2022/05/13 13:28:12;;;;;;;2.25;0.68;;;18.70;99.90;;;;;;5075445;28;20515;-72
2022/05/13 13:30:44;;;;;;;2.67;0.55;;;18.80;99.90;;;;;;5058800;28;20063;-72
2022/05/13 13:33:11;;;;;;;2.25;0.60;;;18.50;99.90;;;;;;5075360;28;20083;-72
2022/05/13 13:35:43;;;;;;;0.80;0.43;;;18.70;99.90;;;;;;5058643;28;20072;-72
2022/05/13 13:38:12;;;;;;;1.27;0.55;;;18.40;99.90;;;;;;5075674;28;20521;-73
2022/05/13 13:40:43;;;;;;;0.40;0.40;;;18.10;99.90;;;;;;5058648;28;20105;-73
2022/05/13 13:43:25;;;;;;;4.55;0.65;;;18.00;99.90;;;;;;5075567;28;20134;-73